13:43
Airports
History
Links
Donate
Help keep this website running!
PayPal
Bitcoin
This page is community maintained. The information is intended for PC simulator navigation or reference.
Always use approved charts for navigation.
LERT
Rota Ns
Rota Ns (LERT)
Rota, Andalucía, Spain (11520)
(C)
Lat/Lng:36° 38' 42.77" N / 6° 20' 58.12" W
36.645213 / -6.349479
Elevation:86'ft / 26mMSL
ID / ICAO:LERT
Runways:1
Longest:10-28
Asphalt 3,685m / 12,091ft
Controlled:Yes
METAR13:00 GMT 2017-11-20
Altimeter: 30.15
Visibility: 6.2 statute miles
Wind: 5 knots (from 080°)
Temp: 22°c / 72°f
Humidity: 43.4%

METAR: LERT 201300Z 08005KT 050V110 CAVOK 22/09 Q1021 NOSIG

(Powered by phpweather)
Airport Radio Frequencies
Ground: 130.7
Tower: 119.75
Approach: 120, 120.8, 128.5
Nearby VORs <50NM
Nearby NDBs
Runway 10 / 28
Dimensions:3685.4 x 61m 12091' x 200'ft
Surface:Asphalt
Edge Lights:High intensity
Runway 10 [A]Runway 28 [B]
Heading:096°TH 276°TH
Lat:
Lng:
36° 38' 49.94"N
6° 22' 11.85"W
36° 38' 35.59"N
6° 19' 44.4"W
TDZ:Yes, lighted
User Notes and Comments
36° 38' 42.77" N / 6° 20' 58.12" W
Distance To
Airport ID:
Nearby Airports
(C) Jerez 17.4 NM
LEJR ( WX ) ENE 66°
(C) TABLADA 52.2 NM
LE85 NNE 20°
(C) MORON AB 54.6 NM
LEMO ( WX ) NE 47°
(C) Sevilla 59.0 NM
LEZL ( WX ) NNE 25°
(C) LXGB Gibraltar 65.2 NM
LXGB ( WX ) ESE 121°
(C) IBN BATOUTA 67.8 NM
GMTT ( WX ) SSE 159°
4 Praia Verde Airstrip 72.0 NM
LPPV WNW 301°
VFR Chart
Flight Planning at SkyVector.com